Time;durP1;ratioP1;P1;durP2;ratioP2;P2;SDS_P1;SDS_P2;PMS_P1;PMS_P2;Temp;Humidity;BMP_temperature;BMP_pressure;BME280_temperature;BME280_humidity;BME280_pressure;Samples;Min_cycle;Max_cycle;Signal;HPM_P1;HPM_P2
2022/09/24 00:01:23;;;;;;;8.20;7.50;;;13.50;99.90;;;;;;5075759;28;20473;-71
2022/09/24 00:03:52;;;;;;;8.23;7.43;;;13.40;99.90;;;;;;5075469;28;20492;-70
2022/09/24 00:06:19;;;;;;;9.33;7.70;;;13.40;99.90;;;;;;5076350;28;20549;-70
2022/09/24 00:08:47;;;;;;;8.70;7.33;;;13.40;99.90;;;;;;5075374;28;20545;-70
2022/09/24 00:11:16;;;;;;;7.50;6.90;;;13.40;99.90;;;;;;5075121;28;20458;-70
2022/09/24 00:13:43;;;;;;;11.00;6.97;;;13.40;99.90;;;;;;5075231;28;20485;-70
2022/09/24 00:16:14;;;;;;;7.77;6.10;;;13.30;99.90;;;;;;5075501;28;20459;-70
2022/09/24 00:18:41;;;;;;;8.80;7.60;;;13.30;99.90;;;;;;5074752;28;20454;-70
2022/09/24 00:21:16;;;;;;;7.53;6.83;;;13.30;99.90;;;;;;5075024;28;20549;-71
2022/09/24 00:23:43;;;;;;;7.47;6.50;;;13.20;99.90;;;;;;5075203;28;20532;-71
2022/09/24 00:28:57;;;;;;;7.90;7.10;;;13.20;99.90;;;;;;5074745;28;20426;-71
2022/09/24 00:31:24;;;;;;;7.50;6.80;;;13.10;99.90;;;;;;5075640;28;20918;-71
2022/09/24 00:33:51;;;;;;;8.80;6.53;;;13.10;99.90;;;;;;5088290;28;20446;-70
2022/09/24 00:36:20;;;;;;;8.43;7.20;;;13.10;99.90;;;;;;5089034;28;20477;-70
2022/09/24 00:38:49;;;;;;;8.80;7.30;;;13.10;99.90;;;;;;5088290;28;20982;-71
2022/09/24 00:41:18;;;;;;;8.27;7.47;;;13.10;99.90;;;;;;5089057;28;20468;-70
2022/09/24 00:43:45;;;;;;;10.43;7.70;;;13.00;99.90;;;;;;5088373;28;20508;-71
2022/09/24 00:46:21;;;;;;;7.47;6.70;;;13.00;99.90;;;;;;5087607;28;20488;-72
2022/09/24 00:48:50;;;;;;;8.20;6.70;;;13.00;99.90;;;;;;5087427;28;20442;-71
2022/09/24 00:51:19;;;;;;;7.80;7.10;;;13.00;99.90;;;;;;5076096;28;20528;-70
2022/09/24 00:53:49;;;;;;;8.37;7.53;;;13.00;99.90;;;;;;5075090;28;20569;-70
2022/09/24 00:56:17;;;;;;;8.60;7.70;;;12.90;99.90;;;;;;5075666;28;20454;-70
2022/09/24 00:58:51;;;;;;;8.10;7.30;;;12.90;99.90;;;;;;5075033;28;20493;-70
2022/09/24 01:01:20;;;;;;;8.30;7.50;;;12.90;99.90;;;;;;5074819;28;21279;-71
2022/09/24 01:03:48;;;;;;;11.03;8.13;;;12.80;99.90;;;;;;5075567;28;20572;-71
2022/09/24 01:06:15;;;;;;;8.83;7.70;;;12.80;99.90;;;;;;5075217;28;20464;-70
2022/09/24 01:08:42;;;;;;;9.00;7.50;;;12.80;99.90;;;;;;5074780;28;20490;-70
2022/09/24 01:11:26;;;;;;;8.60;7.77;;;12.90;99.90;;;;;;5074515;28;20454;-70
2022/09/24 01:14:14;;;;;;;8.30;7.50;;;12.90;99.90;;;;;;5075446;28;20745;-70
2022/09/24 01:16:48;;;;;;;7.80;7.10;;;12.80;99.90;;;;;;5075068;28;20452;-71
2022/09/24 01:19:45;;;;;;;8.60;7.40;;;12.80;99.90;;;;;;5074616;28;20765;-72
2022/09/24 01:22:22;;;;;;;8.00;7.17;;;12.80;99.90;;;;;;5074517;28;20973;-71
2022/09/24 01:24:59;;;;;;;8.37;7.57;;;12.80;99.90;;;;;;5075128;28;20768;-73
2022/09/24 01:27:42;;;;;;;8.10;7.30;;;12.80;99.90;;;;;;5075344;28;20776;-71
2022/09/24 01:30:12;;;;;;;8.50;7.60;;;12.80;99.90;;;;;;5074547;28;20778;-71
2022/09/24 01:32:43;;;;;;;9.10;8.20;;;12.80;99.90;;;;;;5074224;28;20470;-72
2022/09/24 01:35:17;;;;;;;8.80;7.90;;;12.80;99.90;;;;;;5076023;28;20484;-72
2022/09/24 01:37:48;;;;;;;8.47;7.77;;;12.80;99.90;;;;;;5082325;28;20514;-71
2022/09/24 01:40:17;;;;;;;8.20;7.37;;;12.80;99.90;;;;;;5085100;28;20921;-70
2022/09/24 01:42:45;;;;;;;9.40;8.20;;;12.80;99.90;;;;;;5078354;28;20461;-70
2022/09/24 01:45:16;;;;;;;9.53;7.40;;;12.80;99.90;;;;;;5078042;28;20458;-71
2022/09/24 01:47:44;;;;;;;7.87;7.17;;;12.80;99.90;;;;;;5078236;28;20477;-71
2022/09/24 01:50:15;;;;;;;8.70;7.90;;;12.80;99.90;;;;;;5079604;28;20885;-71
2022/09/24 01:52:48;;;;;;;8.30;7.60;;;12.80;99.90;;;;;;5079865;28;20462;-71
2022/09/24 01:55:19;;;;;;;10.10;7.73;;;12.80;99.90;;;;;;5077892;28;20864;-71
2022/09/24 01:57:51;;;;;;;7.83;7.13;;;12.90;99.90;;;;;;5078613;28;20481;-70
2022/09/24 02:00:21;;;;;;;9.57;7.80;;;12.90;99.90;;;;;;5078030;28;20891;-71
2022/09/24 02:02:55;;;;;;;9.90;7.70;;;12.90;99.90;;;;;;5078017;28;20949;-71
2022/09/24 02:05:31;;;;;;;8.70;7.87;;;12.90;99.90;;;;;;5078717;28;20787;-70
2022/09/24 02:08:05;;;;;;;8.13;7.43;;;12.90;99.90;;;;;;5079414;28;20438;-70
2022/09/24 02:10:37;;;;;;;8.20;7.47;;;12.90;99.90;;;;;;5079032;28;20540;-70
2022/09/24 02:13:12;;;;;;;8.13;7.33;;;12.90;99.90;;;;;;5078972;28;20536;-71
2022/09/24 02:15:44;;;;;;;8.57;7.67;;;13.00;99.90;;;;;;5080521;28;20469;-72
2022/09/24 02:18:16;;;;;;;11.87;7.60;;;13.00;99.90;;;;;;5082166;28;20817;-71
2022/09/24 02:20:44;;;;;;;8.57;7.80;;;13.00;99.90;;;;;;5080849;28;20439;-71
2022/09/24 02:23:14;;;;;;;8.90;8.00;;;13.00;99.90;;;;;;5077496;28;20541;-71
2022/09/24 02:25:45;;;;;;;8.00;7.27;;;13.00;99.90;;;;;;5077183;28;20946;-71
2022/09/24 02:28:12;;;;;;;8.30;7.50;;;13.00;99.90;;;;;;5077815;28;20446;-72
2022/09/24 02:30:46;;;;;;;10.40;8.30;;;13.00;99.90;;;;;;5078154;28;20888;-71
2022/09/24 02:35:59;;;;;;;8.60;7.70;;;12.90;99.90;;;;;;5084413;28;20456;-70
2022/09/24 02:38:27;;;;;;;8.00;7.33;;;12.90;99.90;;;;;;5077479;28;20768;-71
2022/09/24 02:40:54;;;;;;;8.97;8.00;;;12.90;99.90;;;;;;5076923;28;20941;-71
2022/09/24 02:43:21;;;;;;;8.37;7.50;;;12.90;99.90;;;;;;5076996;28;20451;-71
2022/09/24 02:45:49;;;;;;;8.57;7.70;;;12.90;99.90;;;;;;5077051;28;20454;-71
2022/09/24 02:48:16;;;;;;;7.70;7.10;;;12.90;99.90;;;;;;5076397;28;20454;-71
2022/09/24 02:50:43;;;;;;;8.10;7.30;;;12.90;99.90;;;;;;5076923;28;20549;-71
2022/09/24 02:53:10;;;;;;;7.97;7.17;;;13.00;99.90;;;;;;5076863;28;20581;-71
2022/09/24 02:55:37;;;;;;;10.43;7.27;;;12.90;99.90;;;;;;5081519;28;20540;-71
2022/09/24 02:58:03;;;;;;;8.43;7.73;;;13.00;99.90;;;;;;5087506;28;20545;-71
2022/09/24 03:00:30;;;;;;;8.80;8.00;;;13.00;99.90;;;;;;5088732;28;20513;-72
2022/09/24 03:02:58;;;;;;;8.53;7.63;;;13.00;99.90;;;;;;5087510;28;20446;-72
2022/09/24 03:05:25;;;;;;;8.63;7.80;;;13.00;99.90;;;;;;5082500;28;20474;-72
2022/09/24 03:07:52;;;;;;;8.37;7.47;;;13.00;99.90;;;;;;5076842;28;20550;-72
2022/09/24 03:10:25;;;;;;;8.07;7.27;;;12.90;99.90;;;;;;5080099;28;20458;-74
2022/09/24 03:12:52;;;;;;;8.23;7.43;;;12.90;99.90;;;;;;5085441;28;20584;-71
2022/09/24 03:15:19;;;;;;;8.33;7.57;;;12.90;99.90;;;;;;5085073;28;20549;-71
2022/09/24 03:17:46;;;;;;;7.90;7.20;;;12.90;99.90;;;;;;5076192;28;20924;-71
2022/09/24 03:20:14;;;;;;;7.53;6.83;;;12.90;99.90;;;;;;5076003;28;20458;-71
2022/09/24 03:22:41;;;;;;;9.40;8.50;;;12.90;99.90;;;;;;5075599;28;20457;-71
2022/09/24 03:25:09;;;;;;;9.80;8.30;;;12.80;99.90;;;;;;5078667;28;20486;-71
2022/09/24 03:27:36;;;;;;;8.47;7.67;;;12.80;99.90;;;;;;5102269;28;20454;-72
2022/09/24 03:32:48;;;;;;;8.60;7.80;;;12.80;99.90;;;;;;5102835;28;20459;-72
2022/09/24 03:35:16;;;;;;;8.67;7.87;;;12.80;99.90;;;;;;5102436;28;20455;-72
2022/09/24 03:37:44;;;;;;;8.90;8.10;;;12.80;99.90;;;;;;5102232;28;20453;-72
2022/09/24 03:40:11;;;;;;;9.13;8.23;;;12.70;99.90;;;;;;5101168;28;20766;-71
2022/09/24 03:42:38;;;;;;;9.33;8.40;;;12.70;99.90;;;;;;5099354;28;20449;-71
2022/09/24 03:45:06;;;;;;;10.03;8.17;;;12.70;99.90;;;;;;5099853;28;20457;-71
2022/09/24 03:47:33;;;;;;;8.63;7.83;;;12.70;99.90;;;;;;5098609;28;20467;-71
2022/09/24 03:50:00;;;;;;;9.20;8.30;;;12.70;99.90;;;;;;5101687;28;20453;-71
2022/09/24 03:52:28;;;;;;;9.27;8.27;;;12.70;99.90;;;;;;5100815;28;20853;-71
2022/09/24 03:54:55;;;;;;;8.50;7.70;;;12.60;99.90;;;;;;5101545;28;20453;-71
2022/09/24 03:57:22;;;;;;;9.03;7.83;;;12.70;99.90;;;;;;5100741;28;20468;-71
2022/09/24 03:59:51;;;;;;;9.17;7.73;;;12.70;99.90;;;;;;5100751;28;20760;-71
2022/09/24 04:02:18;;;;;;;8.60;7.60;;;12.70;99.90;;;;;;5090348;28;33103;-71
2022/09/24 04:04:45;;;;;;;8.80;7.90;;;12.70;99.90;;;;;;5090491;28;20542;-73
2022/09/24 04:07:12;;;;;;;8.90;8.10;;;12.80;99.90;;;;;;5098742;28;20461;-73
2022/09/24 04:09:41;;;;;;;9.00;8.10;;;12.80;99.90;;;;;;5098088;28;20530;-73
2022/09/24 04:12:08;;;;;;;8.57;7.77;;;12.80;99.90;;;;;;5098790;28;20453;-72
2022/09/24 04:14:34;;;;;;;8.83;8.03;;;12.90;99.90;;;;;;5098772;28;20485;-72
2022/09/24 04:17:02;;;;;;;8.93;7.90;;;12.90;99.90;;;;;;5098576;28;20489;-72
2022/09/24 04:19:30;;;;;;;9.63;8.63;;;12.90;99.90;;;;;;5100852;28;20449;-72
2022/09/24 04:21:57;;;;;;;9.37;8.47;;;12.90;99.90;;;;;;5099308;28;20492;-72
2022/09/24 04:24:24;;;;;;;8.87;8.07;;;12.90;99.90;;;;;;5098316;28;20528;-73
2022/09/24 04:26:52;;;;;;;9.47;8.47;;;12.90;99.90;;;;;;5097321;28;20558;-72
2022/09/24 04:29:19;;;;;;;8.87;7.97;;;12.90;99.90;;;;;;5096838;28;20784;-72
2022/09/24 04:31:46;;;;;;;8.60;7.90;;;12.80;99.90;;;;;;5094786;28;20454;-72
2022/09/24 04:34:13;;;;;;;8.67;7.83;;;12.80;99.90;;;;;;5095037;28;20974;-72
2022/09/24 04:36:40;;;;;;;9.93;7.77;;;12.80;99.90;;;;;;5095064;28;20461;-72
2022/09/24 04:39:06;;;;;;;11.80;8.23;;;12.80;99.90;;;;;;5094933;28;20471;-71
2022/09/24 04:41:33;;;;;;;10.17;8.97;;;12.80;99.90;;;;;;5094964;28;20457;-71
2022/09/24 04:44:02;;;;;;;8.90;8.10;;;12.80;99.90;;;;;;5095073;28;20972;-71
2022/09/24 04:46:32;;;;;;;13.53;7.57;;;12.80;99.90;;;;;;5095250;28;20454;-71
2022/09/24 04:48:59;;;;;;;12.30;8.57;;;12.80;99.90;;;;;;5095379;28;20464;-71
2022/09/24 04:51:26;;;;;;;8.60;7.80;;;12.90;99.90;;;;;;5094979;28;20544;-71
2022/09/24 04:53:52;;;;;;;9.00;8.30;;;12.90;99.90;;;;;;5094706;28;20476;-71
2022/09/24 04:56:19;;;;;;;9.80;7.90;;;12.80;99.90;;;;;;5095018;28;20457;-71
2022/09/24 04:58:50;;;;;;;9.87;8.50;;;12.80;99.90;;;;;;5097099;28;20494;-72
2022/09/24 05:01:19;;;;;;;9.10;8.27;;;12.70;99.90;;;;;;5097400;28;20448;-72
2022/09/24 05:03:46;;;;;;;9.13;8.33;;;12.70;99.90;;;;;;5095482;28;20840;-72
2022/09/24 05:06:13;;;;;;;9.30;8.40;;;12.70;99.90;;;;;;5096709;28;20461;-72
2022/09/24 05:08:39;;;;;;;8.20;7.47;;;12.70;99.90;;;;;;5094712;28;20514;-72
2022/09/24 05:11:06;;;;;;;8.50;7.70;;;12.70;99.90;;;;;;5094859;28;20808;-72
2022/09/24 05:13:34;;;;;;;8.93;8.03;;;12.70;99.90;;;;;;5095647;28;20477;-72
2022/09/24 05:16:01;;;;;;;9.17;7.60;;;12.70;99.90;;;;;;5098350;28;20560;-72
2022/09/24 05:18:29;;;;;;;8.20;7.30;;;12.70;99.90;;;;;;5099034;28;20457;-72
2022/09/24 05:20:56;;;;;;;8.60;7.70;;;12.70;99.90;;;;;;5099030;28;20461;-72
2022/09/24 05:23:22;;;;;;;11.93;8.07;;;12.70;99.90;;;;;;5099085;28;20449;-72
2022/09/24 05:28:34;;;;;;;8.13;7.33;;;12.70;99.90;;;;;;5098901;28;20425;-71
2022/09/24 05:31:01;;;;;;;8.80;8.00;;;12.70;99.90;;;;;;5098948;28;20492;-72
2022/09/24 05:33:29;;;;;;;9.00;8.10;;;12.70;99.90;;;;;;5098874;28;20476;-72
2022/09/24 05:35:56;;;;;;;8.30;7.60;;;12.70;99.90;;;;;;5098869;28;20536;-72
2022/09/24 05:38:24;;;;;;;7.87;7.10;;;12.80;99.90;;;;;;5098253;28;20461;-71
2022/09/24 05:40:51;;;;;;;9.63;8.60;;;12.80;99.90;;;;;;5098701;28;20463;-71
2022/09/24 05:43:19;;;;;;;9.10;8.30;;;12.80;99.90;;;;;;5091050;28;20458;-72
2022/09/24 05:45:46;;;;;;;9.23;8.40;;;12.90;99.90;;;;;;5082347;28;20458;-72
2022/09/24 05:48:13;;;;;;;8.50;7.80;;;12.90;99.90;;;;;;5081546;28;20453;-72
2022/09/24 05:50:41;;;;;;;9.83;8.80;;;12.90;99.90;;;;;;5081428;28;21022;-72
2022/09/24 05:53:09;;;;;;;8.83;8.03;;;13.00;99.90;;;;;;5081852;28;20454;-72
2022/09/24 05:55:36;;;;;;;11.47;8.53;;;13.00;99.90;;;;;;5081553;28;20899;-72
2022/09/24 05:58:04;;;;;;;10.97;8.53;;;13.00;99.90;;;;;;5081548;28;20454;-72
2022/09/24 06:00:31;;;;;;;14.50;12.30;;;13.00;99.90;;;;;;5082065;28;20555;-72
2022/09/24 06:03:04;;;;;;;9.90;8.90;;;13.10;99.90;;;;;;5081510;28;20458;-70
2022/09/24 06:05:32;;;;;;;10.37;7.93;;;13.20;99.90;;;;;;5075917;28;21147;-72
2022/09/24 06:08:01;;;;;;;10.03;8.00;;;13.20;99.90;;;;;;5078780;28;20454;-72
2022/09/24 06:10:28;;;;;;;11.27;8.13;;;13.20;99.90;;;;;;5077695;28;20454;-72
2022/09/24 06:12:55;;;;;;;9.47;8.47;;;13.20;99.90;;;;;;5089695;28;20553;-73
2022/09/24 06:15:23;;;;;;;8.97;8.17;;;13.20;99.90;;;;;;5090671;28;20474;-72
2022/09/24 06:17:53;;;;;;;8.70;7.90;;;13.20;99.90;;;;;;5092829;28;20472;-72
2022/09/24 06:20:20;;;;;;;9.27;8.47;;;13.30;99.90;;;;;;5089323;28;20449;-72
2022/09/24 06:22:47;;;;;;;9.27;8.37;;;13.20;99.90;;;;;;5090138;28;20468;-72
2022/09/24 06:25:15;;;;;;;9.00;8.20;;;13.30;99.90;;;;;;5088781;28;20465;-72
2022/09/24 06:27:42;;;;;;;8.47;7.70;;;13.30;99.90;;;;;;5084377;28;20518;-72
2022/09/24 06:30:10;;;;;;;8.50;7.70;;;13.40;99.90;;;;;;5081539;28;20507;-72
2022/09/24 06:32:37;;;;;;;9.53;8.10;;;13.40;99.90;;;;;;5077434;28;20484;-73
2022/09/24 06:35:04;;;;;;;8.50;7.70;;;13.50;99.90;;;;;;5077051;28;20488;-72
2022/09/24 06:37:32;;;;;;;8.10;7.40;;;13.50;99.90;;;;;;5077600;28;20450;-73
2022/09/24 06:39:59;;;;;;;9.43;8.53;;;13.50;99.90;;;;;;5076813;28;20494;-72
2022/09/24 06:42:27;;;;;;;9.37;8.30;;;13.50;99.90;;;;;;5077175;28;20481;-72
2022/09/24 06:44:54;;;;;;;10.03;8.67;;;13.50;99.90;;;;;;5076814;28;20490;-73
2022/09/24 06:47:22;;;;;;;11.20;10.07;;;13.60;99.90;;;;;;5080539;28;20522;-72
2022/09/24 06:49:49;;;;;;;10.27;9.23;;;13.60;99.90;;;;;;5080736;28;20459;-72
2022/09/24 06:52:16;;;;;;;11.70;8.10;;;13.60;99.90;;;;;;5087381;28;20454;-72
2022/09/24 06:54:43;;;;;;;9.73;8.90;;;13.60;99.90;;;;;;5087743;28;20561;-73
2022/09/24 06:57:10;;;;;;;10.20;9.30;;;13.60;99.90;;;;;;5088061;28;20526;-73
2022/09/24 06:59:38;;;;;;;9.33;8.53;;;13.60;99.90;;;;;;5089172;28;20450;-72
2022/09/24 07:02:05;;;;;;;9.93;8.90;;;13.70;99.90;;;;;;5087436;28;20450;-72
2022/09/24 07:04:32;;;;;;;10.30;9.20;;;13.80;99.90;;;;;;5087321;28;20581;-72
2022/09/24 07:09:43;;;;;;;10.70;9.63;;;13.90;99.90;;;;;;5077987;28;20480;-72
2022/09/24 07:12:10;;;;;;;11.13;9.13;;;13.90;99.90;;;;;;5076636;28;20486;-72
2022/09/24 07:14:38;;;;;;;10.20;9.30;;;14.00;99.90;;;;;;5076522;28;20785;-73
2022/09/24 07:17:05;;;;;;;11.00;8.43;;;14.00;99.90;;;;;;5076523;28;20460;-73
2022/09/24 07:19:31;;;;;;;10.63;9.20;;;13.90;99.90;;;;;;5076264;28;20450;-73
2022/09/24 07:21:58;;;;;;;11.13;8.70;;;13.90;99.90;;;;;;5076321;28;20939;-72
2022/09/24 07:24:25;;;;;;;9.07;8.23;;;13.90;99.90;;;;;;5076026;28;20461;-73
2022/09/24 07:26:53;;;;;;;11.13;8.83;;;13.90;99.90;;;;;;5076439;28;20542;-72
2022/09/24 07:29:20;;;;;;;9.20;8.40;;;13.90;99.90;;;;;;5076151;28;20494;-72
2022/09/24 07:31:48;;;;;;;10.80;9.80;;;13.90;99.90;;;;;;5076281;28;20454;-73
2022/09/24 07:34:15;;;;;;;9.90;8.90;;;13.90;99.90;;;;;;5076562;28;20478;-73
2022/09/24 07:36:42;;;;;;;9.80;8.13;;;14.00;99.90;;;;;;5076605;28;20454;-73
2022/09/24 07:39:10;;;;;;;8.77;7.90;;;14.00;99.90;;;;;;5075961;28;20468;-73
2022/09/24 07:41:37;;;;;;;10.47;8.47;;;13.90;99.90;;;;;;5076330;28;20454;-72
2022/09/24 07:44:04;;;;;;;8.80;7.90;;;14.00;99.90;;;;;;5075911;28;20465;-74
2022/09/24 07:46:31;;;;;;;10.20;9.27;;;13.90;99.90;;;;;;5076110;28;20497;-72
2022/09/24 07:48:59;;;;;;;8.53;7.63;;;14.00;99.90;;;;;;5075562;28;20856;-71
2022/09/24 07:51:27;;;;;;;12.00;10.50;;;14.00;99.90;;;;;;5075926;28;20834;-71
2022/09/24 07:53:55;;;;;;;9.30;8.50;;;14.00;99.90;;;;;;5075443;28;20493;-71
2022/09/24 07:56:22;;;;;;;10.60;9.50;;;14.00;99.90;;;;;;5075545;28;20544;-72
2022/09/24 07:58:50;;;;;;;11.10;9.97;;;14.10;99.90;;;;;;5075297;28;20941;-72
2022/09/24 08:01:16;;;;;;;9.70;8.77;;;14.20;99.90;;;;;;5075580;28;20460;-72
2022/09/24 08:03:43;;;;;;;9.70;8.90;;;14.20;99.90;;;;;;5080643;28;20478;-70
2022/09/24 08:06:11;;;;;;;11.50;10.30;;;14.20;99.90;;;;;;5076946;28;20485;-72
2022/09/24 08:08:39;;;;;;;20.17;18.10;;;14.30;99.90;;;;;;5076153;28;20460;-71
2022/09/24 08:11:07;;;;;;;14.07;12.03;;;14.30;99.90;;;;;;5075232;28;20490;-71
2022/09/24 08:13:34;;;;;;;14.20;12.80;;;14.40;99.90;;;;;;5074840;28;20990;-71
2022/09/24 08:16:02;;;;;;;11.70;9.87;;;14.50;99.90;;;;;;5075185;28;20485;-71
2022/09/24 08:18:30;;;;;;;12.97;11.67;;;14.50;99.90;;;;;;5074847;28;20550;-71
2022/09/24 08:20:58;;;;;;;17.83;14.27;;;14.60;99.90;;;;;;5074900;28;20466;-71
2022/09/24 08:23:27;;;;;;;17.87;14.60;;;14.60;99.90;;;;;;5074886;28;20488;-71
2022/09/24 08:25:54;;;;;;;17.33;15.50;;;14.70;99.90;;;;;;5067434;28;20486;-72
2022/09/24 08:28:21;;;;;;;14.40;13.10;;;14.90;99.90;;;;;;5075143;28;20458;-71
2022/09/24 08:30:48;;;;;;;12.00;10.80;;;15.00;99.90;;;;;;5075013;28;20919;-72
2022/09/24 08:33:15;;;;;;;12.60;11.13;;;15.10;99.90;;;;;;5074979;28;20853;-72
2022/09/24 08:35:42;;;;;;;9.90;8.90;;;15.20;99.90;;;;;;5074831;28;20479;-71
2022/09/24 08:38:09;;;;;;;10.33;9.20;;;15.30;99.90;;;;;;5074653;28;20465;-71
2022/09/24 08:40:42;;;;;;;11.40;8.70;;;15.40;99.90;;;;;;5074972;28;20457;-72
2022/09/24 08:43:19;;;;;;;10.77;9.67;;;15.50;99.90;;;;;;5074904;28;20438;-71
2022/09/24 08:48:41;;;;;;;9.07;8.20;;;15.60;99.90;;;;;;5074966;28;20438;-71
2022/09/24 08:51:13;;;;;;;10.67;8.00;;;15.70;99.90;;;;;;5075124;28;20755;-71
2022/09/24 08:53:49;;;;;;;9.20;8.40;;;15.70;99.90;;;;;;5075222;28;20452;-72
2022/09/24 08:56:23;;;;;;;9.30;8.40;;;15.80;99.90;;;;;;5075258;28;20462;-71
2022/09/24 08:58:55;;;;;;;9.57;8.67;;;15.90;99.90;;;;;;5075644;28;20522;-71
2022/09/24 09:01:31;;;;;;;9.67;8.67;;;15.90;99.90;;;;;;5074732;28;20461;-72
2022/09/24 09:04:03;;;;;;;10.00;9.00;;;15.90;99.90;;;;;;5074534;28;20518;-72
2022/09/24 09:06:54;;;;;;;8.77;7.97;;;16.00;99.90;;;;;;5075073;28;20438;-72
2022/09/24 09:09:24;;;;;;;9.17;8.27;;;16.00;99.90;;;;;;5075398;28;20794;-72
2022/09/24 09:11:57;;;;;;;10.03;9.03;;;16.00;99.90;;;;;;5075033;28;20500;-72
2022/09/24 09:14:34;;;;;;;10.10;8.77;;;16.10;99.90;;;;;;5076018;28;20545;-72
2022/09/24 09:17:05;;;;;;;9.57;8.60;;;16.20;99.90;;;;;;5075254;28;20438;-72
2022/09/24 09:19:34;;;;;;;10.10;8.93;;;16.40;99.90;;;;;;5074886;28;20458;-71
2022/09/24 09:22:06;;;;;;;9.50;8.60;;;16.50;99.90;;;;;;5074357;28;20446;-71
2022/09/24 09:24:41;;;;;;;8.30;7.60;;;16.70;99.90;;;;;;5074914;28;20525;-72
2022/09/24 09:27:14;;;;;;;9.53;8.60;;;16.90;99.90;;;;;;5074984;28;20438;-71
2022/09/24 09:29:42;;;;;;;8.23;7.50;;;17.00;99.90;;;;;;5074706;28;20442;-71
2022/09/24 09:32:21;;;;;;;9.40;8.20;;;17.10;99.90;;;;;;5074964;28;20937;-72
2022/09/24 09:34:58;;;;;;;8.23;7.50;;;17.20;99.90;;;;;;5075382;28;20477;-72
2022/09/24 09:37:32;;;;;;;8.53;7.73;;;17.40;99.90;;;;;;5074574;28;20453;-72
2022/09/24 09:40:09;;;;;;;8.93;8.03;;;17.50;99.90;;;;;;5074551;28;20956;-72
2022/09/24 09:42:39;;;;;;;9.23;8.40;;;17.40;99.90;;;;;;5074485;28;20472;-71
2022/09/24 09:45:19;;;;;;;8.03;7.33;;;17.40;99.90;;;;;;5074477;28;20482;-72
2022/09/24 09:47:50;;;;;;;7.53;6.93;;;17.40;99.90;;;;;;5074999;28;20486;-72
2022/09/24 09:50:27;;;;;;;10.43;7.93;;;17.40;99.90;;;;;;5074707;28;20442;-72
2022/09/24 09:52:54;;;;;;;9.73;7.77;;;17.50;99.90;;;;;;5073961;28;20438;-72
2022/09/24 09:55:23;;;;;;;9.73;8.83;;;17.60;99.90;;;;;;5074110;28;20486;-70
2022/09/24 09:57:52;;;;;;;7.70;7.10;;;17.70;99.90;;;;;;5073922;28;20520;-71
2022/09/24 10:00:28;;;;;;;10.53;7.33;;;17.80;99.90;;;;;;5074365;28;20458;-71
2022/09/24 10:02:55;;;;;;;8.23;7.53;;;17.90;99.90;;;;;;5077779;28;20514;-72
2022/09/24 10:05:27;;;;;;;7.77;6.97;;;17.90;99.90;;;;;;5077745;28;20449;-72
2022/09/24 10:07:54;;;;;;;8.73;6.67;;;17.80;99.90;;;;;;5078072;28;20443;-71
2022/09/24 10:10:23;;;;;;;6.90;6.30;;;17.80;99.90;;;;;;5077834;28;20632;-71
2022/09/24 10:12:54;;;;;;;7.10;6.50;;;17.80;99.90;;;;;;5077973;28;20925;-73
2022/09/24 10:15:24;;;;;;;9.80;6.60;;;17.70;99.90;;;;;;5078122;28;20466;-70
2022/09/24 10:18:14;;;;;;;7.43;6.60;;;17.70;99.90;;;;;;5092041;28;20434;-73
2022/09/24 10:20:48;;;;;;;8.17;7.10;;;17.70;99.90;;;;;;5075707;28;20533;-71
2022/09/24 10:23:20;;;;;;;7.57;6.87;;;17.70;99.90;;;;;;5077788;28;20443;-71
2022/09/24 10:25:51;;;;;;;7.03;6.37;;;17.70;99.90;;;;;;5077192;28;20859;-71
2022/09/24 10:31:10;;;;;;;10.10;7.13;;;17.90;99.90;;;;;;5077436;28;20442;-71
2022/09/24 10:33:38;;;;;;;7.20;6.60;;;17.90;99.90;;;;;;5077869;28;20447;-71
2022/09/24 10:36:08;;;;;;;7.13;6.43;;;17.90;99.90;;;;;;5077032;28;20482;-71
2022/09/24 10:38:35;;;;;;;6.43;5.93;;;17.90;99.90;;;;;;5076900;28;20454;-70
2022/09/24 10:41:01;;;;;;;7.80;7.00;;;18.00;99.90;;;;;;5077507;28;20454;-71
2022/09/24 10:43:30;;;;;;;7.13;6.43;;;18.00;99.90;;;;;;5076953;28;21002;-71
2022/09/24 10:46:40;;;;;;;8.07;7.33;;;18.00;99.90;;;;;;5077015;28;20481;-71
2022/09/24 10:49:20;;;;;;;7.27;6.57;;;18.00;99.90;;;;;;5070432;28;20549;-71
2022/09/24 10:51:55;;;;;;;7.10;6.40;;;18.00;99.90;;;;;;5077911;28;20485;-71
2022/09/24 10:54:40;;;;;;;8.10;7.30;;;17.90;99.90;;;;;;5078225;28;20437;-71
2022/09/24 10:57:18;;;;;;;8.60;6.30;;;17.90;99.90;;;;;;5076798;28;20889;-71
2022/09/24 10:59:57;;;;;;;7.60;6.90;;;17.90;99.90;;;;;;5076686;28;20464;-71
2022/09/24 11:02:38;;;;;;;6.57;6.07;;;17.90;99.90;;;;;;5077017;28;20537;-71
2022/09/24 11:05:12;;;;;;;9.37;6.80;;;17.90;99.90;;;;;;5076614;28;20478;-71
2022/09/24 11:08:08;;;;;;;6.70;6.20;;;17.90;99.90;;;;;;5076840;28;20462;-71
2022/09/24 11:10:53;;;;;;;8.07;6.70;;;18.00;99.90;;;;;;5074310;28;20545;-71
2022/09/24 11:13:31;;;;;;;6.60;6.00;;;18.00;99.90;;;;;;5075549;28;20789;-71
2022/09/24 11:16:29;;;;;;;9.10;6.93;;;18.10;99.90;;;;;;5076430;28;20761;-71
2022/09/24 11:19:00;;;;;;;7.20;6.50;;;18.20;99.90;;;;;;5076276;28;20439;-71
2022/09/24 11:21:52;;;;;;;7.43;6.63;;;18.20;99.90;;;;;;5076322;28;20442;-71
2022/09/24 11:24:44;;;;;;;7.30;6.50;;;18.30;99.90;;;;;;5076303;28;20612;-71
2022/09/24 11:27:28;;;;;;;7.50;6.77;;;18.30;99.90;;;;;;5076120;28;20458;-71
2022/09/24 11:30:09;;;;;;;6.50;5.90;;;18.30;99.90;;;;;;5077249;28;20842;-71
2022/09/24 11:32:54;;;;;;;5.87;5.37;;;18.40;99.90;;;;;;5078206;28;20449;-73
2022/09/24 11:35:34;;;;;;;6.10;5.60;;;18.60;99.90;;;;;;5076001;28;20536;-72
2022/09/24 11:38:07;;;;;;;6.97;5.73;;;18.80;99.90;;;;;;5076580;28;20438;-71
2022/09/24 11:40:50;;;;;;;5.70;5.20;;;18.90;99.90;;;;;;5076574;28;20540;-71
2022/09/24 11:43:38;;;;;;;5.83;5.17;;;19.00;99.90;;;;;;5075895;28;20443;-73
2022/09/24 11:46:18;;;;;;;5.40;5.00;;;19.10;99.90;;;;;;5075791;28;20442;-71
2022/09/24 11:49:04;;;;;;;6.10;5.47;;;19.30;99.90;;;;;;5075957;28;20456;-72
2022/09/24 11:51:44;;;;;;;7.03;5.40;;;19.40;99.90;;;;;;5075710;28;20447;-71
2022/09/24 11:54:20;;;;;;;8.13;5.60;;;19.40;99.90;;;;;;5076472;28;20443;-72
2022/09/24 11:56:52;;;;;;;5.50;5.00;;;19.50;99.90;;;;;;5075669;28;20812;-71
2022/09/24 11:59:31;;;;;;;9.40;5.10;;;19.50;99.90;;;;;;5075457;28;20884;-71
2022/09/24 12:02:04;;;;;;;5.33;4.90;;;19.40;99.90;;;;;;5076173;28;20434;-71
2022/09/24 12:04:46;;;;;;;6.40;5.80;;;19.30;99.90;;;;;;5075338;28;20504;-71
2022/09/24 12:07:16;;;;;;;5.13;4.67;;;19.10;99.90;;;;;;5075635;28;20439;-71
2022/09/24 12:09:48;;;;;;;5.43;4.90;;;18.90;99.90;;;;;;5075471;28;20446;-71
2022/09/24 12:12:18;;;;;;;5.70;5.10;;;18.80;99.90;;;;;;5075589;28;20443;-71
2022/09/24 12:14:52;;;;;;;6.97;5.23;;;18.60;99.90;;;;;;5075146;28;20458;-71
2022/09/24 12:17:23;;;;;;;5.27;4.83;;;18.50;99.90;;;;;;5075189;28;20478;-71
2022/09/24 12:19:56;;;;;;;6.40;5.70;;;18.50;99.90;;;;;;5075382;28;20763;-71
2022/09/24 12:22:26;;;;;;;8.73;5.10;;;18.40;99.90;;;;;;5075305;28;20776;-71
2022/09/24 12:24:57;;;;;;;7.20;5.93;;;18.50;99.90;;;;;;5074911;28;20617;-72
2022/09/24 12:27:31;;;;;;;7.03;6.33;;;18.50;99.90;;;;;;5075552;28;20448;-71
2022/09/24 12:32:54;;;;;;;6.70;6.10;;;18.40;99.90;;;;;;5075330;28;20514;-71
2022/09/24 12:35:33;;;;;;;5.97;5.47;;;18.40;99.90;;;;;;5081305;28;20472;-71
2022/09/24 12:38:04;;;;;;;6.63;6.03;;;18.40;99.90;;;;;;5085870;28;20525;-72
2022/09/24 12:40:57;;;;;;;6.43;5.83;;;18.40;99.90;;;;;;5079524;28;20443;-72
2022/09/24 12:43:30;;;;;;;6.80;6.20;;;18.50;99.90;;;;;;5074956;28;20910;-72
2022/09/24 12:46:00;;;;;;;5.93;5.43;;;18.60;99.90;;;;;;5075130;28;20442;-72
2022/09/24 12:48:30;;;;;;;9.73;6.80;;;18.70;99.90;;;;;;5074943;28;20573;-71
2022/09/24 12:51:01;;;;;;;6.90;6.30;;;18.80;99.90;;;;;;5074963;28;20458;-73
2022/09/24 12:53:34;;;;;;;6.27;5.70;;;19.00;99.90;;;;;;5074781;28;20538;-72
2022/09/24 12:56:03;;;;;;;6.50;5.97;;;19.20;99.90;;;;;;5074500;28;20463;-71
2022/09/24 12:58:38;;;;;;;6.33;5.73;;;19.40;99.90;;;;;;5075443;28;20907;-73
2022/09/24 13:01:08;;;;;;;6.17;5.47;;;19.70;99.90;;;;;;5074865;28;20464;-71
2022/09/24 13:03:37;;;;;;;7.00;5.63;;;20.20;99.90;;;;;;5074731;28;20488;-71
2022/09/24 13:06:23;;;;;;;5.63;5.23;;;20.80;99.90;;;;;;5074957;28;20455;-71
2022/09/24 13:08:50;;;;;;;8.57;5.40;;;21.40;99.90;;;;;;5076026;28;20452;-73
2022/09/24 13:11:29;;;;;;;5.23;4.83;;;21.70;99.90;;;;;;5075465;28;20469;-72
2022/09/24 13:14:20;;;;;;;5.10;4.70;;;21.80;99.90;;;;;;5075515;28;20481;-73
2022/09/24 13:16:52;;;;;;;7.93;6.07;;;21.80;99.90;;;;;;5058842;28;20518;-72
2022/09/24 13:19:35;;;;;;;6.27;5.63;;;21.80;99.90;;;;;;5075277;28;20446;-73
2022/09/24 13:22:03;;;;;;;5.90;5.33;;;21.60;99.90;;;;;;5074622;28;20445;-72
2022/09/24 13:24:45;;;;;;;5.77;5.17;;;21.70;99.90;;;;;;5075925;28;20454;-72
2022/09/24 13:27:25;;;;;;;7.47;6.30;;;21.80;99.90;;;;;;5081041;28;20439;-72